Terminal Aerodrome Forecast
Issued by NWS

Home | Current Version | Previous Version | Text Only | Print | Product List | Glossary On
Versions: 1 2 3 4 5 6 7 8 9 10 11 12 13 14 15 16 17 18 19 20 21 22 23 24 25 26 27 28 29 30 31 32 33 34 35 36
000
FTUS41 KBTV 222320
TAFPBG
TAF
KPBG 222320Z 2300/2324 35007KT 6SM BR OVC040
     FM230300 VRB03KT P6SM SCT020 OVC030
     FM230800 13005KT 6SM -FZDZSN OVC020
     FM231400 14006KT 5SM -SNRA BR OVC020
     FM231800 16009KT 5SM -RA BR OVC035=

USA.gov is the U.S. government's official web portal to all federal, state and local government web resources and services.